Time;durP1;ratioP1;P1;durP2;ratioP2;P2;SDS_P1;SDS_P2;PMS_P1;PMS_P2;Temp;Humidity;BMP_temperature;BMP_pressure;BME280_temperature;BME280_humidity;BME280_pressure;Samples;Min_cycle;Max_cycle;Signal;HPM_P1;HPM_P2
2021/05/22 00:00:14;;;;;;;2.37;0.70;;;;;;;;;;4943914;29;20662;-71
2021/05/22 00:03:19;;;;;;;0.73;0.70;;;;;;;;;;4954765;28;20227;-71
2021/05/22 00:06:23;;;;;;;1.10;0.57;;;;;;;;;;4960330;28;20191;-71
2021/05/22 00:09:27;;;;;;;2.07;0.70;;;;;;;;;;4975147;28;20179;-71
2021/05/22 00:12:31;;;;;;;3.07;0.70;;;;;;;;;;4974238;28;20227;-71
2021/05/22 00:15:35;;;;;;;0.90;0.80;;;;;;;;;;4962776;28;20210;-71
2021/05/22 00:18:39;;;;;;;1.33;0.70;;;;;;;;;;4974733;28;20183;-71
2021/05/22 00:21:43;;;;;;;0.90;0.60;;;;;;;;;;4957238;28;20195;-71
2021/05/22 00:24:48;;;;;;;1.37;0.80;;;;;;;;;;4955657;29;20183;-71
2021/05/22 00:27:52;;;;;;;1.03;0.63;;;;;;;;;;4958605;28;20543;-71
2021/05/22 00:30:56;;;;;;;1.13;0.50;;;;;;;;;;4974865;28;20646;-71
2021/05/22 00:34:01;;;;;;;1.07;0.53;;;;;;;;;;4968901;28;20187;-71
2021/05/22 00:37:05;;;;;;;1.50;0.80;;;;;;;;;;4954979;28;20651;-72
2021/05/22 00:40:11;;;;;;;1.33;0.43;;;;;;;;;;4943488;29;20179;-71
2021/05/22 00:43:15;;;;;;;0.50;0.40;;;;;;;;;;4963017;28;20227;-71
2021/05/22 00:46:19;;;;;;;1.10;0.70;;;;;;;;;;4977932;28;20194;-72
2021/05/22 00:49:23;;;;;;;3.60;0.83;;;;;;;;;;4959014;29;20223;-71
2021/05/22 00:52:28;;;;;;;1.90;0.50;;;;;;;;;;4958334;28;20219;-71
2021/05/22 00:55:33;;;;;;;2.77;1.43;;;;;;;;;;4955370;29;20227;-72
2021/05/22 00:58:38;;;;;;;2.60;0.80;;;;;;;;;;4951241;28;20187;-72
2021/05/22 01:01:42;;;;;;;0.50;0.50;;;;;;;;;;4943841;28;20199;-72
2021/05/22 01:04:46;;;;;;;1.70;0.53;;;;;;;;;;4955043;29;20203;-71
2021/05/22 01:07:51;;;;;;;3.73;0.57;;;;;;;;;;4955274;29;20646;-72
2021/05/22 01:11:00;;;;;;;5.37;0.60;;;;;;;;;;4958711;28;20203;-72
2021/05/22 01:14:10;;;;;;;0.67;0.60;;;;;;;;;;4958507;28;20585;-72
2021/05/22 01:17:17;;;;;;;1.23;0.53;;;;;;;;;;4958405;28;20187;-71
2021/05/22 01:20:36;;;;;;;0.93;0.60;;;;;;;;;;4955038;29;20195;-71
2021/05/22 01:24:15;;;;;;;0.50;0.40;;;;;;;;;;4954831;28;20227;-71
2021/05/22 01:27:19;;;;;;;1.87;0.50;;;;;;;;;;4944081;29;20543;-71
2021/05/22 01:30:24;;;;;;;0.93;0.50;;;;;;;;;;4942727;29;20191;-71
2021/05/22 01:33:29;;;;;;;5.13;0.60;;;;;;;;;;4954754;28;20710;-71
2021/05/22 01:36:33;;;;;;;0.43;0.40;;;;;;;;;;4957748;28;20207;-71
2021/05/22 01:39:37;;;;;;;1.37;0.60;;;;;;;;;;4972946;28;20187;-71
2021/05/22 01:42:49;;;;;;;0.40;0.40;;;;;;;;;;4962267;28;20234;-71
2021/05/22 01:45:54;;;;;;;1.23;0.70;;;;;;;;;;4974109;28;20519;-72
2021/05/22 01:49:12;;;;;;;1.80;0.50;;;;;;;;;;4973866;28;20207;-72
2021/05/22 01:52:22;;;;;;;1.40;0.40;;;;;;;;;;4972867;28;20218;-71
2021/05/22 01:55:27;;;;;;;0.90;0.40;;;;;;;;;;4970452;28;20222;-71
2021/05/22 01:58:32;;;;;;;0.40;0.40;;;;;;;;;;4961446;28;20207;-72
2021/05/22 02:01:36;;;;;;;0.90;0.40;;;;;;;;;;4961505;28;20187;-71
2021/05/22 02:04:44;;;;;;;0.77;0.40;;;;;;;;;;4973218;28;20183;-72
2021/05/22 02:07:51;;;;;;;0.57;0.40;;;;;;;;;;4954510;28;20686;-72
2021/05/22 02:10:56;;;;;;;0.30;0.30;;;;;;;;;;4942258;29;20180;-71
2021/05/22 02:14:03;;;;;;;0.47;0.33;;;;;;;;;;4954078;29;20180;-71
2021/05/22 02:17:12;;;;;;;1.23;0.37;;;;;;;;;;4968223;28;20195;-71
2021/05/22 02:20:20;;;;;;;0.70;0.30;;;;;;;;;;4973104;28;20203;-71
2021/05/22 02:23:26;;;;;;;1.53;0.33;;;;;;;;;;4957714;28;20231;-71
2021/05/22 02:26:30;;;;;;;0.70;0.30;;;;;;;;;;4942058;29;20188;-71
2021/05/22 02:29:44;;;;;;;0.30;0.30;;;;;;;;;;4957289;28;20192;-71
2021/05/22 02:32:51;;;;;;;0.20;0.20;;;;;;;;;;4945704;28;20228;-70
2021/05/22 02:35:57;;;;;;;0.30;0.30;;;;;;;;;;4957209;29;20555;-70
2021/05/22 02:39:03;;;;;;;0.47;0.47;;;;;;;;;;4957216;29;20188;-71
2021/05/22 02:42:12;;;;;;;0.47;0.30;;;;;;;;;;4957263;28;20215;-71
2021/05/22 02:45:18;;;;;;;2.90;0.40;;;;;;;;;;4973731;28;20183;-71
2021/05/22 02:48:23;;;;;;;0.30;0.30;;;;;;;;;;4969486;28;20673;-72
2021/05/22 02:51:27;;;;;;;0.40;0.40;;;;;;;;;;4957282;29;20188;-71
2021/05/22 02:54:39;;;;;;;0.30;0.30;;;;;;;;;;4957203;29;20183;-71
2021/05/22 02:57:45;;;;;;;0.40;0.20;;;;;;;;;;4965038;28;20183;-71
2021/05/22 03:00:49;;;;;;;0.43;0.40;;;;;;;;;;4963852;28;20187;-71
2021/05/22 03:03:58;;;;;;;0.87;0.30;;;;;;;;;;4956815;29;20631;-71
2021/05/22 03:07:03;;;;;;;0.30;0.30;;;;;;;;;;4956647;28;20516;-71
2021/05/22 03:10:08;;;;;;;1.80;0.30;;;;;;;;;;4970985;28;20198;-71
2021/05/22 03:13:12;;;;;;;0.40;0.40;;;;;;;;;;4973947;28;20563;-71
2021/05/22 03:16:17;;;;;;;0.77;0.40;;;;;;;;;;4967444;28;20218;-71
2021/05/22 03:19:21;;;;;;;0.30;0.30;;;;;;;;;;4975147;28;20547;-71
2021/05/22 03:22:25;;;;;;;0.30;0.30;;;;;;;;;;4963292;28;20222;-71
2021/05/22 03:25:29;;;;;;;0.20;0.20;;;;;;;;;;4975385;28;20647;-71
2021/05/22 03:28:33;;;;;;;1.77;0.50;;;;;;;;;;4974666;28;20194;-71
2021/05/22 03:31:37;;;;;;;0.30;0.30;;;;;;;;;;4963551;28;20206;-71
2021/05/22 03:34:42;;;;;;;0.30;0.30;;;;;;;;;;4975690;28;20199;-71
2021/05/22 03:37:46;;;;;;;0.40;0.40;;;;;;;;;;4963776;28;20191;-71
2021/05/22 03:40:50;;;;;;;0.47;0.47;;;;;;;;;;4963062;28;20199;-71
2021/05/22 03:43:54;;;;;;;0.30;0.30;;;;;;;;;;4974848;28;20190;-71
2021/05/22 03:46:58;;;;;;;0.30;0.30;;;;;;;;;;4971354;28;20183;-71
2021/05/22 03:50:03;;;;;;;0.30;0.30;;;;;;;;;;4955598;29;20571;-71
2021/05/22 03:53:08;;;;;;;0.93;0.47;;;;;;;;;;4964284;28;20559;-71
2021/05/22 03:56:12;;;;;;;0.30;0.30;;;;;;;;;;4964685;28;20215;-71
2021/05/22 03:59:17;;;;;;;0.33;0.33;;;;;;;;;;4955514;28;20195;-71
2021/05/22 04:02:21;;;;;;;0.73;0.40;;;;;;;;;;4955557;28;20222;-70
2021/05/22 04:05:26;;;;;;;0.40;0.33;;;;;;;;;;4973940;28;20198;-71
2021/05/22 04:08:30;;;;;;;0.37;0.30;;;;;;;;;;4974670;28;20202;-71
2021/05/22 04:11:34;;;;;;;1.20;0.40;;;;;;;;;;4955454;28;20207;-71
2021/05/22 04:14:38;;;;;;;4.20;0.60;;;;;;;;;;4955703;28;20188;-71
2021/05/22 04:17:43;;;;;;;1.07;0.50;;;;;;;;;;4955219;29;20215;-71
2021/05/22 04:20:47;;;;;;;0.67;0.40;;;;;;;;;;4954392;29;20184;-71
2021/05/22 04:23:51;;;;;;;0.40;0.40;;;;;;;;;;4955851;28;20222;-71
2021/05/22 04:26:55;;;;;;;0.40;0.40;;;;;;;;;;4955171;29;20184;-71
2021/05/22 04:29:59;;;;;;;0.50;0.40;;;;;;;;;;4955233;28;20199;-71
2021/05/22 04:33:03;;;;;;;0.87;0.40;;;;;;;;;;4943281;29;20219;-71
2021/05/22 04:36:07;;;;;;;0.97;0.50;;;;;;;;;;4953196;28;20214;-71
2021/05/22 04:39:11;;;;;;;0.40;0.40;;;;;;;;;;4974399;28;20183;-71
2021/05/22 04:42:16;;;;;;;0.47;0.30;;;;;;;;;;4962373;28;20231;-71
2021/05/22 04:45:21;;;;;;;0.43;0.30;;;;;;;;;;4959137;28;20195;-71
2021/05/22 04:48:25;;;;;;;0.87;0.30;;;;;;;;;;4974088;28;20214;-71
2021/05/22 04:51:29;;;;;;;0.63;0.40;;;;;;;;;;4962197;28;20207;-71
2021/05/22 04:54:33;;;;;;;3.13;0.40;;;;;;;;;;4985144;23;20225;-74
2021/05/22 04:57:37;;;;;;;0.50;0.40;;;;;;;;;;4962391;28;20198;-74
2021/05/22 05:00:42;;;;;;;0.50;0.40;;;;;;;;;;4973572;28;20634;-74
2021/05/22 05:03:46;;;;;;;2.70;0.50;;;;;;;;;;4976909;28;20221;-74
2021/05/22 05:06:51;;;;;;;1.33;0.43;;;;;;;;;;4993691;28;20174;-75
2021/05/22 05:09:55;;;;;;;0.70;0.40;;;;;;;;;;4983302;28;20191;-75
2021/05/22 05:13:00;;;;;;;0.40;0.40;;;;;;;;;;4984617;28;20221;-74
2021/05/22 05:16:04;;;;;;;2.10;0.50;;;;;;;;;;4993305;28;20226;-74
2021/05/22 05:19:08;;;;;;;0.80;0.50;;;;;;;;;;4993910;28;20183;-74
2021/05/22 05:22:13;;;;;;;0.40;0.40;;;;;;;;;;4989619;28;20218;-74
2021/05/22 05:25:17;;;;;;;1.30;0.50;;;;;;;;;;4973797;28;20199;-75
2021/05/22 05:28:21;;;;;;;0.40;0.40;;;;;;;;;;4951334;28;20183;-72
2021/05/22 05:31:26;;;;;;;0.50;0.40;;;;;;;;;;4975755;28;20191;-73
2021/05/22 05:34:30;;;;;;;0.33;0.33;;;;;;;;;;4977828;28;20650;-73
2021/05/22 05:37:34;;;;;;;0.97;0.57;;;;;;;;;;4988561;28;20672;-72
2021/05/22 05:40:39;;;;;;;1.70;0.50;;;;;;;;;;4983869;28;20187;-72
2021/05/22 05:43:43;;;;;;;1.97;0.50;;;;;;;;;;4977121;28;20214;-71
2021/05/22 05:46:47;;;;;;;4.07;1.70;;;;;;;;;;4977176;28;20658;-71
2021/05/22 05:49:51;;;;;;;1.40;0.90;;;;;;;;;;4992128;28;20198;-71
2021/05/22 05:52:55;;;;;;;4.13;2.60;;;;;;;;;;4982368;28;20213;-72
2021/05/22 05:55:59;;;;;;;1.13;1.00;;;;;;;;;;4965325;28;20550;-72
2021/05/22 05:59:04;;;;;;;0.87;0.50;;;;;;;;;;4977102;28;20186;-72
2021/05/22 06:02:08;;;;;;;2.20;0.67;;;;;;;;;;4965959;28;20222;-71
2021/05/22 06:05:12;;;;;;;1.87;0.67;;;;;;;;;;4984345;28;20198;-72
2021/05/22 06:08:16;;;;;;;2.10;0.40;;;;;;;;;;4969171;28;20202;-72
2021/05/22 06:11:23;;;;;;;2.63;1.50;;;;;;;;;;4976861;28;20654;-72
2021/05/22 06:14:36;;;;;;;0.80;0.60;;;;;;;;;;4988137;28;20191;-72
2021/05/22 06:17:42;;;;;;;2.27;0.50;;;;;;;;;;4996283;28;20210;-71
2021/05/22 06:20:46;;;;;;;2.07;0.70;;;;;;;;;;4995498;28;20530;-73
2021/05/22 06:23:50;;;;;;;4.73;1.30;;;;;;;;;;4980300;28;20215;-72
2021/05/22 06:26:57;;;;;;;3.07;0.70;;;;;;;;;;4976773;28;20527;-73
2021/05/22 06:30:01;;;;;;;1.10;0.50;;;;;;;;;;4976930;28;20183;-73
2021/05/22 06:33:05;;;;;;;4.57;0.60;;;;;;;;;;4982474;28;20681;-73
2021/05/22 06:36:09;;;;;;;2.00;0.70;;;;;;;;;;4977598;28;20535;-73
2021/05/22 06:39:13;;;;;;;1.53;0.60;;;;;;;;;;4964624;28;20183;-72
2021/05/22 06:42:18;;;;;;;1.23;0.53;;;;;;;;;;4976557;28;20222;-73
2021/05/22 06:45:25;;;;;;;3.80;0.80;;;;;;;;;;4953447;28;20539;-73
2021/05/22 06:48:29;;;;;;;2.33;0.70;;;;;;;;;;4982586;28;20194;-73
2021/05/22 06:51:34;;;;;;;0.77;0.70;;;;;;;;;;4995608;28;20187;-73
2021/05/22 06:54:38;;;;;;;3.77;0.90;;;;;;;;;;4982803;28;20206;-73
2021/05/22 06:57:42;;;;;;;2.23;0.80;;;;;;;;;;4982546;28;20225;-74
2021/05/22 07:00:46;;;;;;;2.43;0.67;;;;;;;;;;4991495;28;20232;-74
2021/05/22 07:03:51;;;;;;;1.87;1.30;;;;;;;;;;4964119;28;20218;-74
2021/05/22 07:06:55;;;;;;;1.67;0.77;;;;;;;;;;4964333;28;20182;-73
2021/05/22 07:09:59;;;;;;;3.43;1.00;;;;;;;;;;4980618;28;20542;-73
2021/05/22 07:13:04;;;;;;;3.30;1.90;;;;;;;;;;4983072;28;20225;-73
2021/05/22 07:16:08;;;;;;;3.67;0.93;;;;;;;;;;4980215;28;20539;-73
2021/05/22 07:19:13;;;;;;;3.00;1.03;;;;;;;;;;4963705;28;20661;-72
2021/05/22 07:22:17;;;;;;;5.13;1.10;;;;;;;;;;4980937;28;20213;-73
2021/05/22 07:25:23;;;;;;;2.50;1.30;;;;;;;;;;4978141;28;20182;-73
2021/05/22 07:28:30;;;;;;;4.00;0.87;;;;;;;;;;4980824;28;20649;-73
2021/05/22 07:31:34;;;;;;;2.17;0.70;;;;;;;;;;4973018;28;20182;-73
2021/05/22 07:34:39;;;;;;;2.70;0.73;;;;;;;;;;4975506;28;20183;-73
2021/05/22 07:37:43;;;;;;;1.20;0.60;;;;;;;;;;4979454;28;20543;-74
2021/05/22 07:40:47;;;;;;;3.87;0.70;;;;;;;;;;4975914;28;20206;-74
2021/05/22 07:43:52;;;;;;;1.73;0.90;;;;;;;;;;4975034;28;20223;-74
2021/05/22 07:46:56;;;;;;;3.10;1.70;;;;;;;;;;4990991;28;20182;-73
2021/05/22 07:50:00;;;;;;;7.53;1.43;;;;;;;;;;4982563;28;20175;-73
2021/05/22 07:53:04;;;;;;;3.60;0.77;;;;;;;;;;4994528;28;20222;-74
2021/05/22 07:56:08;;;;;;;3.93;1.10;;;;;;;;;;4994238;28;20209;-74
2021/05/22 07:59:12;;;;;;;2.90;0.77;;;;;;;;;;4994498;28;20182;-74
2021/05/22 08:02:17;;;;;;;4.63;0.80;;;;;;;;;;4994413;28;20213;-74
2021/05/22 08:05:23;;;;;;;3.87;1.00;;;;;;;;;;4982331;28;20182;-73
2021/05/22 08:08:28;;;;;;;3.60;1.00;;;;;;;;;;4971892;28;20494;-74
2021/05/22 08:11:32;;;;;;;2.20;0.83;;;;;;;;;;4982335;28;20174;-73
2021/05/22 08:14:36;;;;;;;4.13;1.20;;;;;;;;;;4994611;28;20174;-74
2021/05/22 08:17:40;;;;;;;6.13;1.00;;;;;;;;;;4994161;28;20201;-74
2021/05/22 08:20:44;;;;;;;2.53;0.90;;;;;;;;;;4994084;28;20182;-74
2021/05/22 08:23:50;;;;;;;2.83;0.97;;;;;;;;;;4979950;28;20695;-73
2021/05/22 08:26:54;;;;;;;2.90;0.83;;;;;;;;;;4994151;28;20181;-74
2021/05/22 08:29:59;;;;;;;3.37;1.43;;;;;;;;;;4994153;28;20182;-74
2021/05/22 08:33:03;;;;;;;4.00;0.83;;;;;;;;;;4970823;28;20696;-73
2021/05/22 08:36:08;;;;;;;2.97;1.07;;;;;;;;;;4994006;28;20178;-73
2021/05/22 08:39:12;;;;;;;2.23;0.80;;;;;;;;;;4971105;28;20174;-73
2021/05/22 08:42:24;;;;;;;3.70;1.77;;;;;;;;;;4994066;28;20214;-74
2021/05/22 08:45:30;;;;;;;1.87;0.60;;;;;;;;;;4981971;28;20186;-74
2021/05/22 08:48:35;;;;;;;3.47;0.93;;;;;;;;;;4993938;28;20186;-74
2021/05/22 08:51:45;;;;;;;2.73;0.80;;;;;;;;;;4993826;28;20644;-74
2021/05/22 08:54:50;;;;;;;1.77;0.73;;;;;;;;;;4993803;28;20657;-74
2021/05/22 08:57:54;;;;;;;4.27;2.27;;;;;;;;;;4993551;28;20221;-74
2021/05/22 09:01:02;;;;;;;3.10;0.80;;;;;;;;;;4993557;28;20570;-74
2021/05/22 09:04:06;;;;;;;2.67;0.73;;;;;;;;;;4993657;28;20186;-75
2021/05/22 09:07:11;;;;;;;2.37;0.70;;;;;;;;;;4984932;28;20186;-74
2021/05/22 09:10:27;;;;;;;3.50;1.20;;;;;;;;;;4985506;28;20186;-74
2021/05/22 09:13:33;;;;;;;4.23;1.00;;;;;;;;;;4997299;28;20222;-73
2021/05/22 09:16:37;;;;;;;4.57;1.20;;;;;;;;;;4997943;28;20179;-74
2021/05/22 09:19:42;;;;;;;7.57;1.00;;;;;;;;;;4985435;28;20174;-75
2021/05/22 09:23:10;;;;;;;1.83;0.67;;;;;;;;;;4985103;28;20222;-75
2021/05/22 09:26:16;;;;;;;2.77;0.90;;;;;;;;;;4985376;28;20183;-74
2021/05/22 09:29:24;;;;;;;2.20;0.70;;;;;;;;;;4997638;28;20178;-74
2021/05/22 09:32:28;;;;;;;2.87;0.80;;;;;;;;;;4997798;28;20229;-74
2021/05/22 09:35:33;;;;;;;2.83;0.80;;;;;;;;;;4997366;28;20186;-75
2021/05/22 09:38:48;;;;;;;1.67;0.60;;;;;;;;;;4997078;28;20214;-73
2021/05/22 09:41:53;;;;;;;3.20;1.00;;;;;;;;;;4996750;28;20225;-73
2021/05/22 09:44:58;;;;;;;3.80;1.20;;;;;;;;;;4985303;28;20186;-73
2021/05/22 09:48:25;;;;;;;3.67;1.70;;;;;;;;;;4997096;28;20179;-73
2021/05/22 09:51:30;;;;;;;17.90;4.10;;;;;;;;;;4984550;28;20182;-73
2021/05/22 09:54:57;;;;;;;5.93;1.20;;;;;;;;;;4996743;28;20214;-74
2021/05/22 09:58:01;;;;;;;10.07;2.33;;;;;;;;;;4996428;28;20214;-73
2021/05/22 10:01:05;;;;;;;3.73;1.00;;;;;;;;;;4973539;28;20193;-73
2021/05/22 10:04:18;;;;;;;3.43;1.33;;;;;;;;;;4996633;28;20182;-73
2021/05/22 10:07:34;;;;;;;2.03;0.77;;;;;;;;;;4996461;28;20198;-73
2021/05/22 10:10:40;;;;;;;1.87;0.67;;;;;;;;;;4996400;28;20194;-74
2021/05/22 10:13:45;;;;;;;2.17;0.73;;;;;;;;;;4996299;28;20213;-74
2021/05/22 10:16:50;;;;;;;3.67;0.97;;;;;;;;;;4996278;28;20530;-74
2021/05/22 10:19:54;;;;;;;1.40;0.80;;;;;;;;;;4996058;28;20170;-75
2021/05/22 10:23:00;;;;;;;4.37;2.00;;;;;;;;;;4983878;28;20222;-74
2021/05/22 10:26:04;;;;;;;4.60;1.07;;;;;;;;;;4984386;28;20198;-74
2021/05/22 10:29:08;;;;;;;3.37;0.80;;;;;;;;;;4996235;28;20178;-74
2021/05/22 10:32:21;;;;;;;4.70;1.27;;;;;;;;;;4983971;28;20217;-74
2021/05/22 10:35:26;;;;;;;4.03;0.90;;;;;;;;;;4996283;28;20187;-74
2021/05/22 10:38:35;;;;;;;2.20;1.00;;;;;;;;;;4995848;28;20222;-74
2021/05/22 10:41:41;;;;;;;5.03;3.27;;;;;;;;;;4983895;28;20183;-74
2021/05/22 10:44:46;;;;;;;3.30;2.10;;;;;;;;;;4996113;28;20178;-73
2021/05/22 10:47:50;;;;;;;3.90;1.80;;;;;;;;;;4983631;28;20179;-73
2021/05/22 10:50:56;;;;;;;2.53;0.90;;;;;;;;;;4997026;28;20178;-73
2021/05/22 10:54:06;;;;;;;3.27;1.20;;;;;;;;;;4983998;28;20198;-73
2021/05/22 10:57:10;;;;;;;5.23;2.57;;;;;;;;;;4995761;28;20190;-74
2021/05/22 11:00:14;;;;;;;3.60;2.07;;;;;;;;;;4997366;23;20573;-72
2021/05/22 11:03:18;;;;;;;4.80;0.80;;;;;;;;;;4976593;28;20214;-71
2021/05/22 11:06:41;;;;;;;2.47;0.93;;;;;;;;;;4976059;28;20179;-71
2021/05/22 11:09:48;;;;;;;2.87;1.20;;;;;;;;;;4964176;28;20179;-71
2021/05/22 11:12:52;;;;;;;4.20;1.17;;;;;;;;;;4975485;28;20215;-71
2021/05/22 11:15:59;;;;;;;2.87;1.20;;;;;;;;;;4976054;28;20198;-71
2021/05/22 11:19:03;;;;;;;4.53;1.50;;;;;;;;;;4975959;28;20203;-72
2021/05/22 11:22:16;;;;;;;1.90;1.50;;;;;;;;;;4975359;28;20214;-71
2021/05/22 11:25:25;;;;;;;2.13;1.10;;;;;;;;;;4975369;28;20531;-70
2021/05/22 11:28:52;;;;;;;1.63;1.27;;;;;;;;;;4963371;28;20180;-71
2021/05/22 11:31:56;;;;;;;1.87;0.90;;;;;;;;;;4975667;28;20223;-71
2021/05/22 11:38:35;;;;;;;1.63;0.77;;;;;;;;;;4975209;28;20677;-71
2021/05/22 11:41:40;;;;;;;2.77;0.80;;;;;;;;;;4975216;28;20208;-71
2021/05/22 11:44:53;;;;;;;2.40;0.73;;;;;;;;;;4975008;28;20687;-71
2021/05/22 11:47:57;;;;;;;3.20;0.83;;;;;;;;;;4975208;28;20191;-71
2021/05/22 11:51:04;;;;;;;3.17;0.80;;;;;;;;;;4974972;28;20183;-71
2021/05/22 11:54:14;;;;;;;3.17;0.80;;;;;;;;;;4975145;28;20630;-71
2021/05/22 11:57:18;;;;;;;2.57;0.80;;;;;;;;;;4974839;28;20183;-71
2021/05/22 12:00:26;;;;;;;2.63;0.77;;;;;;;;;;4974792;28;20198;-70
2021/05/22 12:03:31;;;;;;;2.17;0.70;;;;;;;;;;4975218;28;20234;-70
2021/05/22 12:06:41;;;;;;;2.60;0.90;;;;;;;;;;4974927;28;20187;-71
2021/05/22 12:09:45;;;;;;;2.50;0.73;;;;;;;;;;4975388;28;20179;-70
2021/05/22 12:12:59;;;;;;;0.87;0.50;;;;;;;;;;4962780;28;20224;-71
2021/05/22 12:16:13;;;;;;;5.33;0.70;;;;;;;;;;4975045;28;20184;-70
2021/05/22 12:19:18;;;;;;;2.87;0.70;;;;;;;;;;4974973;28;20667;-70
2021/05/22 12:22:31;;;;;;;5.70;0.77;;;;;;;;;;4974640;28;20218;-70
2021/05/22 12:25:35;;;;;;;3.33;0.73;;;;;;;;;;4974653;28;20182;-70
2021/05/22 12:28:40;;;;;;;2.37;0.60;;;;;;;;;;4971967;28;20184;-71
2021/05/22 12:31:52;;;;;;;0.80;0.50;;;;;;;;;;4970647;28;20641;-71
2021/05/22 12:34:59;;;;;;;3.57;0.80;;;;;;;;;;4970742;28;20187;-71
2021/05/22 12:38:03;;;;;;;2.73;0.70;;;;;;;;;;4947777;28;20187;-72
2021/05/22 12:41:08;;;;;;;1.87;0.60;;;;;;;;;;4969395;28;20194;-71
2021/05/22 12:44:20;;;;;;;2.37;0.70;;;;;;;;;;4970692;28;20187;-71
2021/05/22 12:47:51;;;;;;;4.77;0.70;;;;;;;;;;4970565;28;20183;-72
2021/05/22 12:50:55;;;;;;;3.57;0.67;;;;;;;;;;4970612;28;20547;-72
2021/05/22 12:54:42;;;;;;;1.53;0.60;;;;;;;;;;4971317;28;20187;-71
2021/05/22 12:57:46;;;;;;;2.30;0.70;;;;;;;;;;4980108;28;20187;-71
2021/05/22 13:00:52;;;;;;;1.50;0.70;;;;;;;;;;4974148;28;20198;-71
2021/05/22 13:03:56;;;;;;;2.53;0.80;;;;;;;;;;4974695;28;20183;-71
2021/05/22 13:07:00;;;;;;;1.33;0.70;;;;;;;;;;4974632;28;20183;-71
2021/05/22 13:10:08;;;;;;;2.50;0.83;;;;;;;;;;4974618;28;20183;-71
2021/05/22 13:13:18;;;;;;;2.00;0.87;;;;;;;;;;4962121;28;20558;-71
2021/05/22 13:16:22;;;;;;;4.00;0.60;;;;;;;;;;4974312;28;20195;-70
2021/05/22 13:19:40;;;;;;;4.10;0.80;;;;;;;;;;4962216;28;20207;-72
2021/05/22 13:22:45;;;;;;;3.57;0.70;;;;;;;;;;4954527;28;20722;-70
2021/05/22 13:25:56;;;;;;;4.00;0.70;;;;;;;;;;4969248;28;20211;-70
2021/05/22 13:29:03;;;;;;;2.70;1.00;;;;;;;;;;4960443;28;20191;-71
2021/05/22 13:32:15;;;;;;;5.53;0.60;;;;;;;;;;4971391;28;20558;-71
2021/05/22 13:35:21;;;;;;;5.40;0.80;;;;;;;;;;4954860;29;20184;-71
2021/05/22 13:38:26;;;;;;;3.03;1.70;;;;;;;;;;4942813;29;20199;-71
2021/05/22 13:41:41;;;;;;;2.83;0.73;;;;;;;;;;4954599;28;20199;-71
2021/05/22 13:44:46;;;;;;;2.50;0.80;;;;;;;;;;4965067;28;20199;-71
2021/05/22 13:47:50;;;;;;;2.23;0.60;;;;;;;;;;4954866;29;20183;-71
2021/05/22 13:50:55;;;;;;;2.00;0.50;;;;;;;;;;4972000;28;20191;-71
2021/05/22 13:54:00;;;;;;;3.80;0.87;;;;;;;;;;4977682;28;20187;-71
2021/05/22 13:57:04;;;;;;;0.57;0.40;;;;;;;;;;4964831;28;20196;-71
2021/05/22 14:00:10;;;;;;;2.87;0.70;;;;;;;;;;4967252;28;20227;-71
2021/05/22 14:03:15;;;;;;;3.53;0.70;;;;;;;;;;4976937;28;20577;-71
2021/05/22 14:06:20;;;;;;;1.40;0.70;;;;;;;;;;4964535;28;20191;-72
2021/05/22 14:09:24;;;;;;;2.07;0.63;;;;;;;;;;4967174;28;20178;-71
2021/05/22 14:12:28;;;;;;;2.03;0.70;;;;;;;;;;4958426;28;20218;-71
2021/05/22 14:15:32;;;;;;;1.13;0.60;;;;;;;;;;4965176;28;20187;-71
2021/05/22 14:18:37;;;;;;;1.43;0.63;;;;;;;;;;4971685;28;20191;-71
2021/05/22 14:21:41;;;;;;;1.73;0.70;;;;;;;;;;4964739;28;20186;-71
2021/05/22 14:24:46;;;;;;;1.97;0.60;;;;;;;;;;4977079;28;20191;-70
2021/05/22 14:27:52;;;;;;;2.97;0.60;;;;;;;;;;4965986;28;20195;-71
2021/05/22 14:30:56;;;;;;;3.63;0.80;;;;;;;;;;4952338;28;20187;-71
2021/05/22 14:34:00;;;;;;;5.47;1.00;;;;;;;;;;4957041;29;20183;-70
2021/05/22 14:37:05;;;;;;;2.57;0.70;;;;;;;;;;4968163;28;20654;-71
2021/05/22 14:40:11;;;;;;;2.40;0.67;;;;;;;;;;4958874;28;20219;-71
2021/05/22 14:43:15;;;;;;;1.90;0.67;;;;;;;;;;4957065;28;20227;-71
2021/05/22 14:46:20;;;;;;;1.47;0.60;;;;;;;;;;4957420;28;20187;-71
2021/05/22 14:49:24;;;;;;;1.07;0.57;;;;;;;;;;4957030;28;20191;-71
2021/05/22 14:52:28;;;;;;;1.20;0.60;;;;;;;;;;4957364;28;20219;-71
2021/05/22 14:55:32;;;;;;;2.27;0.60;;;;;;;;;;4957190;28;20187;-72
2021/05/22 14:58:36;;;;;;;2.70;0.80;;;;;;;;;;4956626;29;20207;-71
2021/05/22 15:01:41;;;;;;;1.53;0.67;;;;;;;;;;4975693;28;20198;-71
2021/05/22 15:04:45;;;;;;;2.30;0.53;;;;;;;;;;4973107;28;20194;-71
2021/05/22 15:07:50;;;;;;;1.93;0.60;;;;;;;;;;4961513;28;20192;-71
2021/05/22 15:10:55;;;;;;;2.20;0.83;;;;;;;;;;4956983;29;20187;-70
2021/05/22 15:13:59;;;;;;;2.30;0.60;;;;;;;;;;4945029;29;20184;-71
2021/05/22 15:17:04;;;;;;;2.13;0.77;;;;;;;;;;4956776;29;20191;-71
2021/05/22 15:20:08;;;;;;;2.37;0.77;;;;;;;;;;4956654;28;20207;-71
2021/05/22 15:23:15;;;;;;;3.83;0.60;;;;;;;;;;4944696;29;20219;-70
2021/05/22 15:26:19;;;;;;;5.13;0.67;;;;;;;;;;4944363;29;20187;-70
2021/05/22 15:29:24;;;;;;;3.80;0.90;;;;;;;;;;4967346;28;20194;-70
2021/05/22 15:32:28;;;;;;;4.13;0.87;;;;;;;;;;4963820;28;20555;-71
2021/05/22 15:35:32;;;;;;;2.43;0.90;;;;;;;;;;4955936;29;20207;-71
2021/05/22 15:38:38;;;;;;;1.60;0.63;;;;;;;;;;4956714;28;20187;-70
2021/05/22 15:41:42;;;;;;;3.93;0.70;;;;;;;;;;4956171;28;20509;-71
2021/05/22 15:44:48;;;;;;;2.53;0.70;;;;;;;;;;4956245;29;20670;-71
2021/05/22 16:07:49;;;;;;;2.33;0.77;;;;;;;;;;4955959;29;20183;-70
2021/05/22 16:10:53;;;;;;;1.80;0.60;;;;;;;;;;4965061;28;20195;-70
2021/05/22 16:13:57;;;;;;;1.77;0.80;;;;;;;;;;4974877;28;20179;-71
2021/05/22 16:17:01;;;;;;;1.20;0.50;;;;;;;;;;4964156;28;20183;-70
2021/05/22 16:20:06;;;;;;;1.90;0.50;;;;;;;;;;4959741;28;20214;-71
2021/05/22 16:23:14;;;;;;;2.17;0.60;;;;;;;;;;4974468;28;20222;-71
2021/05/22 16:26:18;;;;;;;1.70;0.80;;;;;;;;;;4975106;28;20179;-71
2021/05/22 16:29:22;;;;;;;2.70;0.63;;;;;;;;;;4974474;28;20206;-71
2021/05/22 16:32:26;;;;;;;2.00;0.73;;;;;;;;;;4974511;28;20222;-71
2021/05/22 16:35:31;;;;;;;3.20;0.63;;;;;;;;;;4975283;28;20183;-70
2021/05/22 16:38:35;;;;;;;2.50;0.73;;;;;;;;;;4962325;28;20194;-71
2021/05/22 16:41:40;;;;;;;3.00;0.73;;;;;;;;;;4972996;28;20211;-70
2021/05/22 16:44:44;;;;;;;1.57;0.50;;;;;;;;;;4975164;28;20179;-71
2021/05/22 16:47:50;;;;;;;4.23;0.80;;;;;;;;;;4965278;28;20188;-70
2021/05/22 16:50:55;;;;;;;1.20;0.77;;;;;;;;;;4967903;28;20207;-71
2021/05/22 16:53:59;;;;;;;1.90;0.63;;;;;;;;;;4955617;28;20183;-71
2021/05/22 16:57:04;;;;;;;16.00;1.40;;;;;;;;;;4943646;29;20183;-71
2021/05/22 17:00:14;;;;;;;4.13;0.63;;;;;;;;;;4955219;29;20234;-71
2021/05/22 17:03:22;;;;;;;4.23;0.73;;;;;;;;;;4974755;23;20689;-75
2021/05/22 17:06:26;;;;;;;1.03;0.60;;;;;;;;;;4970390;28;20665;-76
2021/05/22 17:09:32;;;;;;;3.17;0.67;;;;;;;;;;4973723;28;20191;-75
2021/05/22 17:12:36;;;;;;;2.30;0.83;;;;;;;;;;4971893;28;20571;-75
2021/05/22 17:15:41;;;;;;;3.97;0.67;;;;;;;;;;4966971;28;20195;-75
2021/05/22 17:18:45;;;;;;;2.83;0.50;;;;;;;;;;4954962;29;20183;-75
2021/05/22 17:21:50;;;;;;;2.43;0.67;;;;;;;;;;4973957;28;20207;-75
2021/05/22 17:24:54;;;;;;;1.57;0.60;;;;;;;;;;4959730;28;20658;-75
2021/05/22 17:27:59;;;;;;;1.63;0.50;;;;;;;;;;4945419;29;20207;-74
2021/05/22 17:31:03;;;;;;;0.80;0.53;;;;;;;;;;4963585;28;20175;-74
2021/05/22 17:34:07;;;;;;;0.90;0.50;;;;;;;;;;4962859;28;20187;-75
2021/05/22 17:37:11;;;;;;;1.03;0.43;;;;;;;;;;4958169;28;20195;-74
2021/05/22 17:40:18;;;;;;;3.00;0.87;;;;;;;;;;4959314;28;20207;-75
2021/05/22 17:43:23;;;;;;;2.93;0.90;;;;;;;;;;4969480;28;20226;-74
2021/05/22 17:46:27;;;;;;;1.67;0.73;;;;;;;;;;4966212;28;20179;-74
2021/05/22 17:49:31;;;;;;;2.40;0.70;;;;;;;;;;4977504;28;20198;-75
2021/05/22 17:52:36;;;;;;;1.67;0.60;;;;;;;;;;4941204;28;20748;-75
2021/05/22 17:55:45;;;;;;;2.30;0.70;;;;;;;;;;4949786;28;20523;-75
2021/05/22 17:58:50;;;;;;;1.27;0.70;;;;;;;;;;4972446;28;20195;-75
2021/05/22 18:01:54;;;;;;;0.97;0.50;;;;;;;;;;4971603;28;20227;-74
2021/05/22 18:04:59;;;;;;;1.30;0.50;;;;;;;;;;4971957;28;20219;-75
2021/05/22 18:08:04;;;;;;;1.70;0.50;;;;;;;;;;4973090;28;20183;-74
2021/05/22 18:11:09;;;;;;;0.90;0.50;;;;;;;;;;4966768;28;20190;-76
2021/05/22 18:14:13;;;;;;;0.63;0.43;;;;;;;;;;4973649;28;20182;-75
2021/05/22 18:17:17;;;;;;;1.37;0.80;;;;;;;;;;4973942;28;20623;-75
2021/05/22 18:20:24;;;;;;;1.80;0.70;;;;;;;;;;4961603;28;20214;-75
2021/05/22 18:23:29;;;;;;;2.90;0.60;;;;;;;;;;4968721;28;20223;-75
2021/05/22 18:26:33;;;;;;;1.60;0.80;;;;;;;;;;4959550;28;20186;-75
2021/05/22 18:29:37;;;;;;;1.00;0.40;;;;;;;;;;4961788;28;20191;-75
2021/05/22 18:32:42;;;;;;;0.93;0.70;;;;;;;;;;4972319;28;20773;-74
2021/05/22 18:35:46;;;;;;;2.77;0.70;;;;;;;;;;4942005;28;20199;-75
2021/05/22 18:38:51;;;;;;;2.83;0.70;;;;;;;;;;4957761;28;20202;-75
2021/05/22 18:41:55;;;;;;;2.17;0.60;;;;;;;;;;4971537;28;20257;-74
2021/05/22 18:44:59;;;;;;;1.63;0.70;;;;;;;;;;4970980;28;20195;-75
2021/05/22 18:48:03;;;;;;;4.27;1.00;;;;;;;;;;4959437;28;20523;-75
2021/05/22 18:51:09;;;;;;;2.33;0.80;;;;;;;;;;4941773;29;20180;-75
2021/05/22 18:54:13;;;;;;;2.93;1.00;;;;;;;;;;4954705;28;20662;-75
2021/05/22 18:57:17;;;;;;;2.50;1.10;;;;;;;;;;4960491;28;20186;-74